createdAt,value
2018-10-16T00:01:26.266Z,19.70
2018-10-16T00:03:54.419Z,18.77
2018-10-16T00:06:22.678Z,17.03
2018-10-16T00:08:50.977Z,17.17
2018-10-16T00:11:19.162Z,18.70
2018-10-16T00:13:47.144Z,17.20
2018-10-16T00:16:15.245Z,18.00
2018-10-16T00:18:43.286Z,19.33
2018-10-16T00:21:11.361Z,18.97
2018-10-16T00:23:39.300Z,19.67
2018-10-16T00:26:07.296Z,18.90
2018-10-16T00:28:35.277Z,19.17
2018-10-16T00:31:03.262Z,18.93
2018-10-16T00:33:31.258Z,16.93
2018-10-16T00:35:59.225Z,19.00
2018-10-16T00:38:27.315Z,19.43
2018-10-16T00:40:55.401Z,18.13
2018-10-16T00:43:23.517Z,19.27
2018-10-16T00:45:51.816Z,19.87
2018-10-16T00:48:20.240Z,19.33
2018-10-16T00:50:48.298Z,19.40
2018-10-16T00:53:16.463Z,17.87
2018-10-16T00:55:44.496Z,17.13
2018-10-16T00:58:12.697Z,18.20
2018-10-16T01:00:40.688Z,17.70
2018-10-16T01:03:08.664Z,17.90
2018-10-16T01:05:36.664Z,16.67
2018-10-16T01:08:04.585Z,17.20
2018-10-16T01:10:32.580Z,24.90
2018-10-16T01:13:00.554Z,16.57
2018-10-16T01:15:28.626Z,20.60
2018-10-16T01:17:56.711Z,17.83
2018-10-16T01:20:25.014Z,17.93
2018-10-16T01:22:53.220Z,17.20
2018-10-16T01:25:21.479Z,18.00
2018-10-16T01:27:50.166Z,15.77
2018-10-16T01:30:18.300Z,16.73
2018-10-16T01:32:46.323Z,17.63
2018-10-16T01:35:14.364Z,15.73
2018-10-16T01:37:42.610Z,14.93
2018-10-16T01:40:11.332Z,16.70
2018-10-16T01:42:39.273Z,14.00
2018-10-16T01:45:07.364Z,14.30
2018-10-16T01:47:35.439Z,14.33
2018-10-16T01:50:03.458Z,14.07
2018-10-16T01:52:31.488Z,16.43
2018-10-16T01:54:59.527Z,15.57
2018-10-16T01:57:27.584Z,16.10
2018-10-16T01:59:55.689Z,15.30
2018-10-16T02:02:23.866Z,15.80
2018-10-16T02:04:52.197Z,16.17
2018-10-16T02:07:20.448Z,15.00
2018-10-16T02:09:48.856Z,15.87
2018-10-16T02:12:16.940Z,15.20
2018-10-16T02:14:45.026Z,14.80
2018-10-16T02:17:13.088Z,15.20
2018-10-16T02:19:41.009Z,14.20
2018-10-16T02:22:09.021Z,16.57
2018-10-16T02:24:37.044Z,13.97
2018-10-16T02:27:05.137Z,15.00
2018-10-16T02:29:33.078Z,14.57
2018-10-16T02:32:01.098Z,15.67
2018-10-16T02:34:29.322Z,16.77
2018-10-16T02:36:57.735Z,19.80
2018-10-16T02:39:25.763Z,18.23
2018-10-16T02:41:53.913Z,15.47
2018-10-16T02:44:22.100Z,15.33
2018-10-16T02:46:50.381Z,15.30
2018-10-16T02:49:18.425Z,15.43
2018-10-16T02:51:46.557Z,15.30
2018-10-16T02:54:14.633Z,14.93
2018-10-16T02:56:42.704Z,15.63
2018-10-16T02:59:10.721Z,13.93
2018-10-16T03:01:38.657Z,15.83
2018-10-16T03:04:06.631Z,14.10
2018-10-16T03:06:34.589Z,12.73
2018-10-16T03:09:02.602Z,14.10
2018-10-16T03:11:30.601Z,14.50
2018-10-16T03:13:58.687Z,15.40
2018-10-16T03:16:26.850Z,15.23
2018-10-16T03:18:55.043Z,13.87
2018-10-16T03:21:23.160Z,15.20
2018-10-16T03:23:51.380Z,14.47
2018-10-16T03:26:20.825Z,13.90
2018-10-16T03:28:48.924Z,13.70
2018-10-16T03:31:17.237Z,12.90
2018-10-16T03:33:57.067Z,11.87
2018-10-16T03:36:25.232Z,14.30
2018-10-16T03:38:53.344Z,13.97
2018-10-16T03:41:21.658Z,12.70
2018-10-16T03:43:53.624Z,13.03
2018-10-16T03:46:21.912Z,12.93
2018-10-16T03:48:50.200Z,13.87
2018-10-16T03:51:18.336Z,16.93
2018-10-16T03:53:46.448Z,14.93
2018-10-16T03:56:14.449Z,13.47
2018-10-16T03:58:42.573Z,19.83
2018-10-16T04:01:10.512Z,14.10
2018-10-16T04:03:38.493Z,14.23
2018-10-16T04:06:06.731Z,13.80
2018-10-16T04:08:34.707Z,13.97
2018-10-16T04:11:02.781Z,14.77
2018-10-16T04:13:30.760Z,15.27
2018-10-16T04:15:58.879Z,15.07
2018-10-16T04:18:26.968Z,12.73
2018-10-16T04:20:55.113Z,13.40
2018-10-16T04:23:23.681Z,14.10
2018-10-16T04:25:51.777Z,14.50
2018-10-16T04:28:20.177Z,13.83
2018-10-16T04:30:48.413Z,14.13
2018-10-16T04:33:16.832Z,15.17
2018-10-16T04:35:44.893Z,15.57
2018-10-16T04:38:12.972Z,15.87
2018-10-16T04:40:40.968Z,12.70
2018-10-16T04:43:10.612Z,13.10
2018-10-16T04:45:39.785Z,14.40
2018-10-16T04:48:07.763Z,16.37
2018-10-16T04:50:35.793Z,15.67
2018-10-16T04:53:03.887Z,14.07
2018-10-16T04:55:31.939Z,15.47
2018-10-16T04:58:00.086Z,14.00
2018-10-16T05:00:28.314Z,16.50
2018-10-16T05:02:59.612Z,14.67
2018-10-16T05:05:27.726Z,12.23
2018-10-16T05:07:55.900Z,14.70
2018-10-16T05:10:24.721Z,13.70
2018-10-16T05:12:53.802Z,15.70
2018-10-16T05:15:29.655Z,14.87
2018-10-16T05:17:58.494Z,16.10
2018-10-16T05:20:28.093Z,16.20
2018-10-16T05:23:01.101Z,14.63
2018-10-16T05:25:30.408Z,17.60
2018-10-16T05:27:58.717Z,16.23
2018-10-16T05:30:27.091Z,16.10
2018-10-16T05:32:58.072Z,14.40
2018-10-16T05:35:26.183Z,14.87
2018-10-16T05:37:55.231Z,15.97
2018-10-16T05:40:23.545Z,14.33
2018-10-16T05:43:01.010Z,15.57
2018-10-16T05:45:36.019Z,15.70
2018-10-16T05:48:04.076Z,14.53
2018-10-16T05:50:32.658Z,12.73
2018-10-16T05:53:00.724Z,14.87
2018-10-16T05:55:29.515Z,14.27
2018-10-16T05:57:57.595Z,16.93
2018-10-16T06:00:31.789Z,16.20
2018-10-16T06:02:59.868Z,13.87
2018-10-16T06:05:28.442Z,14.23
2018-10-16T06:07:58.649Z,13.43
2018-10-16T06:10:26.801Z,14.53
2018-10-16T06:12:55.447Z,14.57
2018-10-16T06:15:23.883Z,15.27
2018-10-16T06:17:52.179Z,14.10
2018-10-16T06:20:21.419Z,14.23
2018-10-16T06:22:49.762Z,12.60
2018-10-16T06:25:18.206Z,14.30
2018-10-16T06:27:46.395Z,15.10
2018-10-16T06:30:15.054Z,14.90
2018-10-16T06:32:43.486Z,14.57
2018-10-16T06:35:11.833Z,13.80
2018-10-16T06:37:39.945Z,12.93
2018-10-16T06:40:08.579Z,12.73
2018-10-16T06:42:36.851Z,13.73
2018-10-16T06:45:06.114Z,13.87
2018-10-16T06:47:34.505Z,13.70
2018-10-16T06:50:05.341Z,13.03
2018-10-16T06:52:33.401Z,14.40
2018-10-16T06:55:01.759Z,12.27
2018-10-16T06:57:29.879Z,13.93
2018-10-16T07:02:42.224Z,14.23
2018-10-16T07:05:10.350Z,12.93
2018-10-16T07:07:38.655Z,22.93
2018-10-16T07:10:10.260Z,14.40
2018-10-16T07:12:38.731Z,13.37
2018-10-16T07:15:07.359Z,14.67
2018-10-16T07:17:36.649Z,14.37
2018-10-16T07:20:05.513Z,14.20
2018-10-16T07:22:34.081Z,12.93
2018-10-16T07:25:02.061Z,11.20
2018-10-16T07:27:30.249Z,13.47
2018-10-16T07:29:58.671Z,14.20
2018-10-16T07:32:26.724Z,13.33
2018-10-16T07:34:54.952Z,13.63
2018-10-16T07:37:23.118Z,12.07
2018-10-16T07:39:51.453Z,13.77
2018-10-16T07:42:20.037Z,13.77
2018-10-16T07:44:48.885Z,14.10
2018-10-16T07:47:18.084Z,14.20
2018-10-16T07:49:46.393Z,13.90
2018-10-16T07:52:14.712Z,15.17
2018-10-16T07:54:43.056Z,14.03
2018-10-16T07:57:11.258Z,15.33
2018-10-16T07:59:39.597Z,15.50
2018-10-16T08:02:08.991Z,21.50
2018-10-16T08:04:37.264Z,18.20
2018-10-16T08:07:05.323Z,15.57
2018-10-16T08:09:33.531Z,16.37
2018-10-16T08:12:01.901Z,18.70
2018-10-16T08:14:30.017Z,16.80
2018-10-16T08:16:58.561Z,16.97
2018-10-16T08:19:27.940Z,17.97
2018-10-16T08:21:56.134Z,17.60
2018-10-16T08:24:24.395Z,16.87
2018-10-16T08:30:32.298Z,16.70
2018-10-16T08:33:00.660Z,19.13
2018-10-16T08:35:29.065Z,16.07
2018-10-16T08:38:27.758Z,17.10
2018-10-16T08:40:57.854Z,17.93
2018-10-16T08:43:38.875Z,18.80
2018-10-16T08:46:12.601Z,18.23
2018-10-16T08:48:47.349Z,17.33
2018-10-16T08:51:21.229Z,16.77
2018-10-16T08:53:49.664Z,17.50
2018-10-16T08:56:17.848Z,15.97
2018-10-16T08:58:46.025Z,16.73
2018-10-16T09:01:14.872Z,20.23
2018-10-16T09:03:43.106Z,18.43
2018-10-16T09:06:11.482Z,18.33
2018-10-16T09:08:39.891Z,17.57
2018-10-16T09:11:09.122Z,16.80
2018-10-16T09:13:39.040Z,18.33
2018-10-16T09:16:11.597Z,15.53
2018-10-16T09:18:39.822Z,17.00
2018-10-16T09:23:52.430Z,15.83
2018-10-16T09:26:20.830Z,17.50
2018-10-16T09:28:49.216Z,16.40
2018-10-16T09:31:17.509Z,17.33
2018-10-16T09:33:46.591Z,16.80
2018-10-16T09:36:14.835Z,15.13
2018-10-16T09:38:42.936Z,16.27
2018-10-16T09:41:11.045Z,15.90
2018-10-16T09:43:39.211Z,16.17
2018-10-16T09:46:07.541Z,16.10
2018-10-16T09:48:35.563Z,14.93
2018-10-16T09:56:27.303Z,16.63
2018-10-16T09:58:56.371Z,13.20
2018-10-16T10:01:30.487Z,13.50
2018-10-16T10:04:09.935Z,14.80
2018-10-16T10:06:38.754Z,13.00
2018-10-16T10:11:51.269Z,13.10
2018-10-16T10:14:19.878Z,12.40
2018-10-16T10:16:54.834Z,13.33
2018-10-16T10:19:26.705Z,13.90
2018-10-16T10:24:43.321Z,12.27
2018-10-16T10:29:57.637Z,10.70
2018-10-16T10:32:29.114Z,11.83
2018-10-16T10:34:58.494Z,10.23
2018-10-16T10:37:27.057Z,12.03
2018-10-16T10:39:55.504Z,12.07
2018-10-16T10:42:24.608Z,11.43
2018-10-16T10:47:37.847Z,11.60
2018-10-16T10:50:08.306Z,11.60
2018-10-16T10:52:37.460Z,12.27
2018-10-16T10:55:06.939Z,10.13
2018-10-16T10:57:35.786Z,9.20
2018-10-16T11:00:04.605Z,8.77
2018-10-16T11:02:38.450Z,12.00
2018-10-16T11:07:47.796Z,9.37
2018-10-16T11:10:25.474Z,10.03
2018-10-16T11:13:02.797Z,8.23
2018-10-16T11:18:16.263Z,9.37
2018-10-16T11:20:45.066Z,8.00
2018-10-16T11:23:14.372Z,9.50
2018-10-16T11:25:42.777Z,8.50
2018-10-16T11:28:11.682Z,8.67
2018-10-16T11:30:40.093Z,8.47
2018-10-16T11:35:57.151Z,9.10
2018-10-16T11:38:32.085Z,8.40
2018-10-16T11:43:43.281Z,8.03
2018-10-16T11:48:54.777Z,8.30
2018-10-16T11:54:08.638Z,8.43
2018-10-16T11:56:42.050Z,7.97
2018-10-16T11:59:10.379Z,7.40
2018-10-16T12:01:39.474Z,7.10
2018-10-16T12:04:08.469Z,8.50
2018-10-16T12:06:39.970Z,9.77
2018-10-16T12:09:10.735Z,7.87
2018-10-16T12:11:41.501Z,8.17
2018-10-16T12:14:19.510Z,7.73
2018-10-16T12:16:59.396Z,8.27
2018-10-16T12:19:47.605Z,9.30
2018-10-16T12:22:18.214Z,8.23
2018-10-16T12:24:46.458Z,7.33
2018-10-16T12:27:15.317Z,8.30
2018-10-16T12:29:44.159Z,8.00
2018-10-16T12:32:14.869Z,8.20
2018-10-16T12:34:42.993Z,10.30
2018-10-16T12:37:12.022Z,7.27
2018-10-16T12:39:40.635Z,8.63
2018-10-16T12:42:09.167Z,7.53
2018-10-16T12:44:37.430Z,8.10
2018-10-16T12:47:07.899Z,7.67
2018-10-16T12:49:37.158Z,7.70
2018-10-16T12:54:41.749Z,7.07
2018-10-16T12:57:17.627Z,7.97
2018-10-16T13:02:25.735Z,7.13
2018-10-16T13:05:06.189Z,8.23
2018-10-16T13:07:39.993Z,7.37
2018-10-16T13:15:38.634Z,9.47
2018-10-16T13:20:53.537Z,7.80
2018-10-16T13:26:04.174Z,8.47
2018-10-16T13:28:33.159Z,8.13
2018-10-16T13:31:02.379Z,9.83
2018-10-16T13:33:32.227Z,7.90
2018-10-16T13:38:43.385Z,7.87
2018-10-16T13:41:12.217Z,8.40
2018-10-16T13:43:40.773Z,7.43
2018-10-16T13:46:09.125Z,8.03
2018-10-16T13:48:43.837Z,9.07
2018-10-16T13:51:13.160Z,6.10
2018-10-16T13:53:41.535Z,7.70
2018-10-16T13:59:01.362Z,6.97
2018-10-16T14:12:25.958Z,7.47
2018-10-16T14:14:54.682Z,8.00
2018-10-16T14:17:23.762Z,7.83
2018-10-16T14:19:53.631Z,8.93
2018-10-16T14:22:27.344Z,8.47
2018-10-16T14:24:56.052Z,9.80
2018-10-16T14:27:25.532Z,7.43
2018-10-16T14:32:29.233Z,7.17
2018-10-16T14:37:36.015Z,6.40
2018-10-16T14:50:52.985Z,7.13
2018-10-16T14:53:24.489Z,7.70
2018-10-16T14:55:53.437Z,8.50
2018-10-16T15:01:20.234Z,7.70
2018-10-16T15:03:55.444Z,7.90
2018-10-16T15:06:25.955Z,9.13
2018-10-16T15:08:54.423Z,9.67
2018-10-16T15:11:23.295Z,8.80
2018-10-16T15:13:52.552Z,7.57
2018-10-16T15:16:21.868Z,7.83
2018-10-16T15:18:51.413Z,9.20
2018-10-16T15:21:20.547Z,9.40
2018-10-16T15:23:50.629Z,8.93
2018-10-16T15:26:20.200Z,8.30
2018-10-16T15:28:48.913Z,8.37
2018-10-16T15:31:18.426Z,7.80
2018-10-16T15:33:52.356Z,7.97
2018-10-16T15:36:24.511Z,8.27
2018-10-16T15:38:55.882Z,7.70
2018-10-16T15:41:24.821Z,9.63
2018-10-16T15:43:53.509Z,9.03
2018-10-16T15:46:22.199Z,8.33
2018-10-16T15:48:50.975Z,9.23
2018-10-16T15:51:20.391Z,9.23
2018-10-16T15:53:49.404Z,9.37
2018-10-16T15:56:17.773Z,10.97
2018-10-16T15:58:46.845Z,9.83
2018-10-16T16:01:15.408Z,9.97
2018-10-16T16:03:44.691Z,9.97
2018-10-16T16:06:13.068Z,8.90
2018-10-16T16:08:41.272Z,11.07
2018-10-16T16:11:09.538Z,9.93
2018-10-16T16:13:38.003Z,9.33
2018-10-16T16:16:07.333Z,9.60
2018-10-16T16:18:36.514Z,9.27
2018-10-16T16:21:05.016Z,10.23
2018-10-16T16:23:34.099Z,9.60
2018-10-16T16:26:03.421Z,10.27
2018-10-16T16:28:31.545Z,9.70
2018-10-16T16:31:00.518Z,10.33
2018-10-16T16:33:29.043Z,11.37
2018-10-16T16:35:57.562Z,11.53
2018-10-16T16:38:27.776Z,12.10
2018-10-16T16:40:56.698Z,11.63
2018-10-16T16:43:25.641Z,13.73
2018-10-16T16:45:54.860Z,12.37
2018-10-16T16:48:23.782Z,12.73
2018-10-16T16:50:52.306Z,10.57
2018-10-16T16:53:22.414Z,12.80
2018-10-16T16:55:51.129Z,12.30
2018-10-16T16:58:21.349Z,10.80
2018-10-16T17:03:23.787Z,11.47
2018-10-16T17:05:52.450Z,12.07
2018-10-16T17:08:21.505Z,11.63
2018-10-16T17:10:51.156Z,12.50
2018-10-16T17:13:19.747Z,13.43
2018-10-16T17:15:48.133Z,12.37
2018-10-16T17:18:16.692Z,12.17
2018-10-16T17:20:45.229Z,12.77
2018-10-16T17:23:14.259Z,13.00
2018-10-16T17:25:42.968Z,12.93
2018-10-16T17:28:11.041Z,11.97
2018-10-16T17:30:39.230Z,13.77
2018-10-16T17:33:07.523Z,11.90
2018-10-16T17:35:35.821Z,13.00
2018-10-16T17:38:04.340Z,14.13
2018-10-16T17:40:33.346Z,12.93
2018-10-16T17:43:02.042Z,12.33
2018-10-16T17:45:30.767Z,13.13
2018-10-16T17:47:59.771Z,14.90
2018-10-16T17:50:32.977Z,12.40
2018-10-16T17:53:01.570Z,12.00
2018-10-16T17:55:30.501Z,11.50
2018-10-16T17:57:58.912Z,13.20
2018-10-16T18:00:27.342Z,11.70
2018-10-16T18:02:56.098Z,12.67
2018-10-16T18:05:24.751Z,13.10
2018-10-16T18:07:53.358Z,12.03
2018-10-16T18:10:27.174Z,12.77
2018-10-16T18:12:55.893Z,14.30
2018-10-16T18:15:29.880Z,14.77
2018-10-16T18:17:58.478Z,13.13
2018-10-16T18:20:26.949Z,14.13
2018-10-16T18:22:55.435Z,13.83
2018-10-16T18:25:24.113Z,14.20
2018-10-16T18:27:52.728Z,14.77
2018-10-16T18:30:21.761Z,14.17
2018-10-16T18:32:50.322Z,14.97
2018-10-16T18:35:18.900Z,13.70
2018-10-16T18:37:47.234Z,14.50
2018-10-16T18:40:15.791Z,14.40
2018-10-16T18:42:44.227Z,14.63
2018-10-16T18:45:13.678Z,14.97
2018-10-16T18:47:42.200Z,15.07
2018-10-16T18:50:12.389Z,16.63
2018-10-16T18:52:40.897Z,17.33
2018-10-16T18:55:10.518Z,14.80
2018-10-16T18:57:39.071Z,17.40
2018-10-16T19:00:08.478Z,15.50
2018-10-16T19:02:37.470Z,15.43
2018-10-16T19:05:07.689Z,15.13
2018-10-16T19:07:36.370Z,14.97
2018-10-16T19:10:05.698Z,14.30
2018-10-16T19:12:33.870Z,13.50
2018-10-16T19:15:02.174Z,14.23
2018-10-16T19:17:30.406Z,13.37
2018-10-16T19:20:01.256Z,14.27
2018-10-16T19:22:29.811Z,16.50
2018-10-16T19:25:00.749Z,16.20
2018-10-16T19:27:29.233Z,15.53
2018-10-16T19:29:57.660Z,15.90
2018-10-16T19:32:25.981Z,14.37
2018-10-16T19:34:54.839Z,15.50
2018-10-16T19:37:23.683Z,15.67
2018-10-16T19:39:52.097Z,14.07
2018-10-16T19:42:21.312Z,15.33
2018-10-16T19:44:49.703Z,13.87
2018-10-16T19:47:18.211Z,13.77
2018-10-16T19:49:46.986Z,14.60
2018-10-16T19:52:16.842Z,14.63
2018-10-16T19:54:45.134Z,14.47
2018-10-16T19:57:13.688Z,14.27
2018-10-16T19:59:42.101Z,14.90
2018-10-16T20:02:10.170Z,14.40
2018-10-16T20:04:38.830Z,12.90
2018-10-16T20:07:13.528Z,14.27
2018-10-16T20:09:41.719Z,15.93
2018-10-16T20:12:10.018Z,15.87
2018-10-16T20:14:38.095Z,14.93
2018-10-16T20:17:06.112Z,14.87
2018-10-16T20:19:34.307Z,15.10
2018-10-16T20:22:02.294Z,13.30
2018-10-16T20:24:30.709Z,14.13
2018-10-16T20:26:58.910Z,12.33
2018-10-16T20:29:27.512Z,12.77
2018-10-16T20:31:56.307Z,14.60
2018-10-16T20:34:24.649Z,13.17
2018-10-16T20:36:53.225Z,14.43
2018-10-16T20:39:22.042Z,14.53
2018-10-16T20:41:50.409Z,14.63
2018-10-16T20:44:19.323Z,14.20
2018-10-16T20:46:47.903Z,15.30
2018-10-16T20:49:16.459Z,14.40
2018-10-16T20:51:44.746Z,15.00
2018-10-16T20:54:12.966Z,15.10
2018-10-16T20:56:41.405Z,14.43
2018-10-16T20:59:09.585Z,14.90
2018-10-16T21:01:37.690Z,15.10
2018-10-16T21:04:05.998Z,15.80
2018-10-16T21:06:34.257Z,14.27
2018-10-16T21:09:02.723Z,15.20
2018-10-16T21:11:31.092Z,16.67
2018-10-16T21:13:59.385Z,16.17
2018-10-16T21:16:27.605Z,12.83
2018-10-16T21:18:55.880Z,14.70
2018-10-16T21:21:24.134Z,13.47
2018-10-16T21:23:52.605Z,15.23
2018-10-16T21:26:21.052Z,14.80
2018-10-16T21:28:50.699Z,13.90
2018-10-16T21:31:18.749Z,14.00
2018-10-16T21:33:47.020Z,15.10
2018-10-16T21:36:15.086Z,14.00
2018-10-16T21:38:43.207Z,13.90
2018-10-16T21:41:11.240Z,14.67
2018-10-16T21:43:39.204Z,15.90
2018-10-16T21:46:07.213Z,14.67
2018-10-16T21:48:35.248Z,15.07
2018-10-16T21:51:03.402Z,14.10
2018-10-16T21:53:31.639Z,13.80
2018-10-16T21:55:59.854Z,15.07
2018-10-16T21:58:28.158Z,15.03
2018-10-16T22:01:01.766Z,14.33
2018-10-16T22:03:29.825Z,14.17
2018-10-16T22:05:58.106Z,14.20
2018-10-16T22:08:26.411Z,14.50
2018-10-16T22:10:54.735Z,12.90
2018-10-16T22:13:22.996Z,15.47
2018-10-16T22:15:53.053Z,14.63
2018-10-16T22:18:21.346Z,14.80
2018-10-16T22:20:49.605Z,12.93
2018-10-16T22:23:18.059Z,14.43
2018-10-16T22:25:46.205Z,14.07
2018-10-16T22:28:14.253Z,15.40
2018-10-16T22:30:42.229Z,13.40
2018-10-16T22:33:10.279Z,14.13
2018-10-16T22:35:38.282Z,16.50
2018-10-16T22:38:09.928Z,14.30
2018-10-16T22:40:39.141Z,13.50
2018-10-16T22:43:07.730Z,14.27
2018-10-16T22:45:36.013Z,14.60
2018-10-16T22:48:04.041Z,15.00
2018-10-16T22:50:32.126Z,14.40
2018-10-16T22:53:00.134Z,14.50
2018-10-16T22:55:28.141Z,14.93
2018-10-16T22:57:56.288Z,14.07
2018-10-16T23:00:24.480Z,14.13
2018-10-16T23:02:52.721Z,12.47
2018-10-16T23:07:55.662Z,15.60
2018-10-16T23:10:23.835Z,15.23
2018-10-16T23:12:57.584Z,13.60
2018-10-16T23:15:25.685Z,14.90
2018-10-16T23:17:53.846Z,15.63
2018-10-16T23:20:22.169Z,15.97
2018-10-16T23:22:50.388Z,16.03
2018-10-16T23:25:18.548Z,16.60
2018-10-16T23:27:47.504Z,14.93
2018-10-16T23:30:15.565Z,15.33
2018-10-16T23:32:43.553Z,14.03
2018-10-16T23:35:11.691Z,14.10
2018-10-16T23:37:39.584Z,14.53
2018-10-16T23:40:07.575Z,14.20
2018-10-16T23:42:35.548Z,14.37
2018-10-16T23:45:03.578Z,12.87
2018-10-16T23:47:31.618Z,13.83
2018-10-16T23:49:59.739Z,13.13
2018-10-16T23:52:27.876Z,12.27
2018-10-16T23:54:56.047Z,13.30
2018-10-16T23:57:24.274Z,12.93
2018-10-16T23:59:52.613Z,13.70
